Current Weather

Al Ahsa

Al Ahsa, Saudi Arabia (OEAH)

Report from: Friday, April 19, 2024 1:00 PM +03
Current time: Friday, April 19, 2024 1:12 PM +03

Nearby weather – Weather history – Daily summaries
Weather forecast

Temperature35.0°C (95.0°F)
Heat index32.4°C (90.3°F)
Dew point0.0°C (32.0°F)
Winds 2 kts (1 m/s, 2.3 mph) Vrb
Winds variableWinds variable
Clouds Sky clear
Altimeter29.80 in.Hg (1009 mB)
Relative humidity11 %
Density altitude2,510 ft. (765 m)
Remarks Ceiling and visibility OK
No significant changes expected in the next two hours
Flight conditions Visual Meteorological Conditions
Raw dataOEAH 191000Z VRB02KT CAVOK 35/00 Q1009 NOSIG
An error has occurred. This application may no longer respond until reloaded. Reload 🗙